Time;durP1;ratioP1;P1;durP2;ratioP2;P2;SDS_P1;SDS_P2;PMS_P1;PMS_P2;Temp;Humidity;BMP_temperature;BMP_pressure;BME280_temperature;BME280_humidity;BME280_pressure;Samples;Min_cycle;Max_cycle;Signal;HPM_P1;HPM_P2
2023/05/11 00:02:18;;;;;;;13.65;8.10;;;;;;;10.23;100.00;101481.66;4976567;28;20097;-76
2023/05/11 00:05:02;;;;;;;14.75;8.02;;;;;;;10.27;100.00;101477.97;4975393;28;20603;-75
2023/05/11 00:07:47;;;;;;;15.10;8.18;;;;;;;10.27;100.00;101477.97;4974678;28;20161;-75
2023/05/11 00:10:31;;;;;;;13.68;8.07;;;;;;;10.30;100.00;101476.06;4967971;28;20169;-75
2023/05/11 00:13:21;;;;;;;15.98;8.82;;;;;;;10.31;100.00;101474.31;4976725;28;20053;-76
2023/05/11 00:16:05;;;;;;;14.77;8.13;;;;;;;10.30;100.00;101473.44;4955170;28;20348;-76
2023/05/11 00:18:49;;;;;;;15.85;7.93;;;;;;;10.34;100.00;101471.53;4977048;28;20049;-75
2023/05/11 00:21:33;;;;;;;13.30;7.50;;;;;;;10.36;100.00;101464.44;4975530;28;20077;-76
2023/05/11 00:24:18;;;;;;;14.45;7.40;;;;;;;10.40;100.00;101467.84;4973122;28;20053;-75
2023/05/11 00:27:01;;;;;;;12.73;7.05;;;;;;;10.40;100.00;101467.84;4977508;28;20092;-75
2023/05/11 00:29:46;;;;;;;12.32;7.18;;;;;;;10.41;100.00;101467.75;4977404;28;20084;-75
2023/05/11 00:32:30;;;;;;;15.93;8.48;;;;;;;10.45;100.00;101471.19;4976494;28;20832;-75
2023/05/11 00:35:14;;;;;;;13.77;7.88;;;;;;;10.50;100.00;101476.34;4977366;28;20084;-75
2023/05/11 00:37:58;;;;;;;14.77;7.65;;;;;;;10.49;100.00;101467.53;4976267;28;20065;-75
2023/05/11 00:40:42;;;;;;;14.25;7.80;;;;;;;10.49;100.00;101471.94;4975912;28;20581;-76
2023/05/11 00:43:27;;;;;;;14.60;7.55;;;;;;;10.51;100.00;101464.84;4984113;28;20049;-75
2023/05/11 00:46:11;;;;;;;14.10;7.75;;;;;;;10.52;100.00;101471.88;4976315;28;20107;-75
2023/05/11 00:48:55;;;;;;;17.27;8.85;;;;;;;10.53;100.00;101469.16;4975051;28;20554;-75
2023/05/11 00:51:40;;;;;;;18.63;8.90;;;;;;;10.53;100.00;101463.88;4976778;28;20136;-75
2023/05/11 00:54:24;;;;;;;17.00;8.73;;;;;;;10.55;100.00;101464.69;4989994;28;20041;-75
2023/05/11 00:57:08;;;;;;;16.60;8.10;;;;;;;10.54;100.00;101467.38;4976584;28;20104;-74
2023/05/11 00:59:52;;;;;;;16.63;8.52;;;;;;;10.53;100.00;101460.34;4977512;28;20311;-76
2023/05/11 01:02:36;;;;;;;16.55;8.68;;;;;;;10.56;100.00;101468.16;4978643;28;20132;-76
2023/05/11 01:05:21;;;;;;;15.68;8.50;;;;;;;10.54;100.00;101459.44;4976254;28;20118;-76
2023/05/11 01:08:16;;;;;;;14.88;8.73;;;;;;;10.55;100.00;101461.16;4975709;28;20049;-76
2023/05/11 01:11:27;;;;;;;13.82;8.00;;;;;;;10.53;100.00;101463.00;4978054;28;20045;-75
2023/05/11 01:14:15;;;;;;;15.57;8.68;;;;;;;10.49;100.00;101464.00;4975958;28;20065;-76
2023/05/11 01:17:04;;;;;;;15.43;8.90;;;;;;;10.46;100.00;101473.78;4971503;28;20484;-76
2023/05/11 01:19:56;;;;;;;14.98;7.93;;;;;;;10.48;100.00;101480.81;4978154;28;20061;-76
2023/05/11 01:23:18;;;;;;;15.07;8.00;;;;;;;10.50;100.00;101476.34;4979341;28;20041;-76
2023/05/11 01:26:23;;;;;;;17.73;8.55;;;;;;;10.46;100.00;101479.09;4992320;28;20417;-76
2023/05/11 01:29:32;;;;;;;17.25;8.27;;;;;;;10.48;100.00;101478.16;4980668;28;20113;-75
2023/05/11 01:32:19;;;;;;;18.30;8.23;;;;;;;10.46;100.00;101480.88;4978598;28;20425;-75
2023/05/11 01:35:17;;;;;;;18.15;8.52;;;;;;;10.44;100.00;101480.94;4977642;28;20073;-75
2023/05/11 01:38:03;;;;;;;17.00;8.43;;;;;;;10.45;100.00;101476.50;4989821;28;20049;-75
2023/05/11 01:40:53;;;;;;;13.65;8.07;;;;;;;10.45;100.00;101477.38;4969373;28;20421;-74
2023/05/11 01:43:39;;;;;;;17.13;9.10;;;;;;;10.50;100.00;101473.72;4990959;28;20764;-74
2023/05/11 01:46:29;;;;;;;15.20;9.05;;;;;;;10.46;100.00;101471.16;4975544;28;20071;-75
2023/05/11 01:49:15;;;;;;;15.32;8.23;;;;;;;10.49;100.00;101483.41;4983566;28;20077;-75
2023/05/11 01:52:01;;;;;;;18.13;7.95;;;;;;;10.49;100.00;101485.19;4978756;28;20857;-76
2023/05/11 01:54:47;;;;;;;14.13;7.63;;;;;;;10.49;100.00;101482.53;4976749;28;20112;-76
2023/05/11 01:57:32;;;;;;;16.08;7.85;;;;;;;10.48;100.00;101484.34;4977012;28;20651;-76
2023/05/11 02:00:17;;;;;;;14.77;8.13;;;;;;;10.49;100.00;101475.47;4971361;28;20286;-76
2023/05/11 02:03:04;;;;;;;13.75;7.60;;;;;;;10.49;100.00;101478.13;4978222;28;20128;-76
2023/05/11 02:05:49;;;;;;;14.80;8.57;;;;;;;10.50;100.00;101479.84;4977406;28;20049;-75
2023/05/11 02:08:33;;;;;;;17.58;8.52;;;;;;;10.51;100.00;101480.72;4974160;28;20049;-75
2023/05/11 02:11:19;;;;;;;16.02;8.80;;;;;;;10.49;100.00;101483.41;4964056;28;20120;-75
2023/05/11 02:14:04;;;;;;;15.45;8.65;;;;;;;10.50;100.00;101479.00;4977640;28;20092;-75
2023/05/11 02:16:49;;;;;;;17.77;8.85;;;;;;;10.48;100.00;101481.69;4974922;28;20049;-75
2023/05/11 02:19:35;;;;;;;18.30;8.73;;;;;;;10.48;100.00;101481.69;4962499;28;21241;-75
2023/05/11 02:22:20;;;;;;;19.15;8.90;;;;;;;10.49;100.00;101488.72;4977405;28;20048;-75
2023/05/11 02:25:06;;;;;;;14.48;7.97;;;;;;;10.48;100.00;101492.28;4978186;28;20236;-75
2023/05/11 02:27:50;;;;;;;20.98;9.48;;;;;;;10.49;100.00;101488.72;4976479;28;20473;-75
2023/05/11 02:30:39;;;;;;;16.60;8.95;;;;;;;10.46;100.00;101478.22;4980240;28;20140;-75
2023/05/11 02:33:30;;;;;;;15.60;8.73;;;;;;;10.46;100.00;101489.69;4975884;28;20496;-75
2023/05/11 02:36:16;;;;;;;18.60;9.00;;;;;;;10.48;100.00;101481.69;4976942;28;20122;-76
2023/05/11 02:39:08;;;;;;;19.95;9.45;;;;;;;10.49;100.00;101480.78;4982133;28;20057;-75
2023/05/11 02:41:55;;;;;;;16.77;8.48;;;;;;;10.50;100.00;101486.94;4969595;28;20041;-75
2023/05/11 02:44:47;;;;;;;15.52;8.93;;;;;;;10.48;100.00;101488.75;4978042;28;20049;-75
2023/05/11 02:47:35;;;;;;;18.50;8.82;;;;;;;10.45;100.00;101493.25;4991785;28;20397;-75
2023/05/11 02:50:23;;;;;;;15.35;8.23;;;;;;;10.44;100.00;101494.19;4978371;28;20728;-74
2023/05/11 02:53:10;;;;;;;16.17;8.45;;;;;;;10.41;100.00;101493.38;4990890;28;20068;-75
2023/05/11 02:55:55;;;;;;;18.73;9.27;;;;;;;10.40;100.00;101489.00;4981466;28;20968;-75
2023/05/11 02:58:40;;;;;;;18.00;8.85;;;;;;;10.41;100.00;101493.38;4982280;28;20552;-74
2023/05/11 03:01:24;;;;;;;15.18;8.45;;;;;;;10.39;100.00;101489.91;4976743;28;20099;-75
2023/05/11 03:04:08;;;;;;;15.40;7.72;;;;;;;10.39;100.00;101490.78;4982309;28;20062;-74
2023/05/11 03:06:52;;;;;;;17.73;8.70;;;;;;;10.38;100.00;101483.75;4980279;28;20050;-74
2023/05/11 03:09:42;;;;;;;16.98;8.57;;;;;;;10.36;100.00;101490.03;4980609;28;20045;-75
2023/05/11 03:12:30;;;;;;;19.50;9.15;;;;;;;10.34;100.00;101490.06;4981718;28;22099;-76
2023/05/11 03:15:14;;;;;;;19.75;9.90;;;;;;;10.32;100.00;101481.31;4982535;28;21126;-75
2023/05/11 03:18:06;;;;;;;21.52;9.00;;;;;;;10.31;100.00;101484.88;4980149;28;20092;-75
2023/05/11 03:20:51;;;;;;;17.05;8.32;;;;;;;10.32;100.00;101494.56;4981525;28;20041;-75
2023/05/11 03:23:35;;;;;;;17.95;9.43;;;;;;;10.30;100.00;101491.09;4969374;28;20103;-75
2023/05/11 03:26:20;;;;;;;20.25;9.63;;;;;;;10.30;100.00;101483.16;4994933;28;20064;-75
2023/05/11 03:29:06;;;;;;;19.58;8.75;;;;;;;10.32;100.00;101482.19;4981400;28;20057;-75
2023/05/11 03:31:50;;;;;;;18.60;8.55;;;;;;;10.35;100.00;101489.16;4983066;28;20123;-75
2023/05/11 03:34:35;;;;;;;18.83;8.90;;;;;;;10.37;100.00;101489.97;4980966;28;20053;-75
2023/05/11 03:37:19;;;;;;;18.77;9.32;;;;;;;10.38;100.00;101489.06;4977825;28;20104;-75
2023/05/11 03:40:05;;;;;;;17.10;9.10;;;;;;;10.39;100.00;101495.19;4973601;28;20108;-76
2023/05/11 03:42:52;;;;;;;17.45;8.52;;;;;;;10.31;100.00;101496.31;4981702;28;20141;-76
2023/05/11 03:45:37;;;;;;;14.60;7.32;;;;;;;10.29;100.00;101494.66;4977743;28;21943;-76
2023/05/11 03:48:21;;;;;;;18.75;8.00;;;;;;;10.23;100.00;101503.66;4979928;28;20789;-76
2023/05/11 03:51:06;;;;;;;15.30;7.55;;;;;;;10.19;100.00;101494.13;4984490;28;20045;-76
2023/05/11 03:53:50;;;;;;;17.05;8.18;;;;;;;10.19;100.00;101488.81;4980643;28;20057;-74
2023/05/11 03:56:36;;;;;;;17.13;7.47;;;;;;;10.21;100.00;101494.91;4964848;28;20173;-75
2023/05/11 03:59:20;;;;;;;16.55;7.85;;;;;;;10.17;100.00;101493.28;4981253;28;20504;-75
2023/05/11 04:02:04;;;;;;;19.77;7.93;;;;;;;10.07;100.00;101492.72;4991064;28;20057;-75
2023/05/11 04:04:49;;;;;;;15.70;7.25;;;;;;;10.02;100.00;101490.22;4978954;28;20060;-75
2023/05/11 04:07:35;;;;;;;15.90;6.82;;;;;;;10.00;100.00;101492.06;4982035;28;20062;-75
2023/05/11 04:10:19;;;;;;;13.35;6.35;;;;;;;9.93;100.00;101485.25;4991851;28;20049;-75
2023/05/11 04:13:03;;;;;;;9.93;5.38;;;;;;;9.84;100.00;101497.00;4980468;28;20108;-75
2023/05/11 04:15:47;;;;;;;13.23;5.72;;;;;;;9.79;100.00;101498.91;4982013;28;20449;-75
2023/05/11 04:18:31;;;;;;;21.05;5.22;;;;;;;9.76;100.00;101493.72;4981816;28;20112;-75
2023/05/11 04:21:15;;;;;;;14.98;5.43;;;;;;;9.71;100.00;101499.16;4985101;28;20049;-75
2023/05/11 04:23:59;;;;;;;19.38;5.80;;;;;;;9.68;100.00;101512.47;4982501;28;20088;-75
2023/05/11 04:26:43;;;;;;;14.73;5.88;;;;;;;9.62;100.00;101510.88;4981218;28;20049;-76
2023/05/11 04:29:28;;;;;;;16.40;5.70;;;;;;;9.58;100.00;101511.88;4969636;28;20091;-76
2023/05/11 04:32:12;;;;;;;21.65;5.05;;;;;;;9.60;100.00;101519.78;4985855;28;20126;-75
2023/05/11 04:34:56;;;;;;;18.02;5.10;;;;;;;9.55;100.00;101512.00;4982711;28;20065;-76
2023/05/11 04:37:40;;;;;;;12.43;5.15;;;;;;;9.55;100.00;101521.69;4983132;28;20060;-75
2023/05/11 04:40:25;;;;;;;13.65;4.95;;;;;;;9.56;100.00;101524.28;4984678;28;20088;-76
2023/05/11 04:43:09;;;;;;;33.13;4.93;;;;;;;9.59;100.00;101525.97;4983012;28;20045;-76
2023/05/11 04:45:53;;;;;;;10.38;4.45;;;;;;;9.61;100.00;101518.84;4982616;28;20100;-75
2023/05/11 04:48:37;;;;;;;12.98;4.50;;;;;;;9.61;100.00;101526.78;4982639;28;20150;-76
2023/05/11 04:51:24;;;;;;;15.68;4.20;;;;;;;9.58;100.00;101526.91;4978043;28;20052;-76
2023/05/11 04:54:09;;;;;;;10.32;4.25;;;;;;;9.53;100.00;101534.09;4984120;28;20052;-76
2023/05/11 04:56:53;;;;;;;11.48;4.28;;;;;;;9.50;100.00;101533.25;4984036;28;20861;-76
2023/05/11 04:59:37;;;;;;;11.98;4.40;;;;;;;9.51;100.00;101531.50;4981476;28;20165;-75
2023/05/11 05:02:21;;;;;;;7.93;4.30;;;;;;;9.51;100.00;101535.00;4982145;28;20065;-76
2023/05/11 05:05:06;;;;;;;13.25;3.80;;;;;;;9.56;100.00;101542.78;4982714;28;20061;-76
2023/05/11 05:07:49;;;;;;;10.35;4.10;;;;;;;9.53;100.00;101539.38;4982228;28;20091;-76
2023/05/11 05:10:33;;;;;;;13.68;4.25;;;;;;;9.57;100.00;101541.88;4971332;28;20161;-76
2023/05/11 05:13:18;;;;;;;7.53;3.75;;;;;;;9.56;100.00;101540.16;4984485;28;20057;-75
2023/05/11 05:16:02;;;;;;;9.90;3.70;;;;;;;9.57;100.00;101547.16;4969827;28;20274;-75
2023/05/11 05:18:46;;;;;;;7.32;3.90;;;;;;;9.57;100.00;101546.28;4982505;28;20105;-75
2023/05/11 05:21:31;;;;;;;8.23;3.83;;;;;;;9.59;100.00;101550.63;4986893;28;20116;-75
2023/05/11 05:24:15;;;;;;;8.75;4.15;;;;;;;9.55;100.00;101543.72;4985391;28;20045;-76
2023/05/11 05:26:59;;;;;;;11.13;4.68;;;;;;;9.57;100.00;101544.53;4983435;28;20124;-76
2023/05/11 05:29:43;;;;;;;9.23;4.45;;;;;;;9.60;100.00;101548.84;4979799;28;20053;-75
2023/05/11 05:32:27;;;;;;;8.57;4.22;;;;;;;9.64;100.00;101546.06;4978547;28;20436;-76
2023/05/11 05:35:11;;;;;;;8.13;4.03;;;;;;;9.64;100.00;101543.44;4984804;28;20664;-76
2023/05/11 05:37:55;;;;;;;7.70;3.78;;;;;;;9.65;100.00;101550.44;4984150;28;20041;-76
2023/05/11 05:40:46;;;;;;;8.20;4.00;;;;;;;9.67;100.00;101549.53;4983533;28;20153;-76
2023/05/11 05:43:30;;;;;;;10.07;4.50;;;;;;;9.68;100.00;101548.59;4981733;28;20690;-75
2023/05/11 05:46:14;;;;;;;8.50;4.03;;;;;;;9.67;100.00;101558.34;4987077;28;20093;-76
2023/05/11 05:48:59;;;;;;;7.88;3.78;;;;;;;9.67;100.00;101560.09;4988099;28;21674;-76
2023/05/11 05:51:44;;;;;;;8.80;4.03;;;;;;;9.61;100.00;101559.41;4983218;28;20056;-76
2023/05/11 05:54:28;;;;;;;8.68;3.85;;;;;;;9.62;100.00;101561.13;4984990;28;20053;-76
2023/05/11 05:57:12;;;;;;;7.05;3.80;;;;;;;9.62;100.00;101561.13;4984629;28;20385;-76
2023/05/11 05:59:56;;;;;;;8.35;3.63;;;;;;;9.68;100.00;101565.34;4986080;28;20155;-76
2023/05/11 06:02:40;;;;;;;7.45;3.95;;;;;;;9.71;100.00;101559.09;4984214;28;20470;-76
2023/05/11 06:05:25;;;;;;;5.65;3.17;;;;;;;9.74;100.00;101572.22;4982562;28;20107;-75
2023/05/11 06:08:09;;;;;;;6.25;3.38;;;;;;;9.80;100.00;101574.69;4979456;28;20108;-76
2023/05/11 06:10:56;;;;;;;6.95;3.90;;;;;;;9.80;100.00;101577.31;4980788;28;20089;-76
2023/05/11 06:13:40;;;;;;;7.32;4.13;;;;;;;9.81;100.00;101584.34;4982276;28;20049;-76
2023/05/11 06:16:27;;;;;;;6.15;3.50;;;;;;;9.83;100.00;101584.31;4978639;28;20108;-76
2023/05/11 06:19:12;;;;;;;6.07;3.42;;;;;;;9.86;100.00;101582.44;4981518;28;20103;-76
2023/05/11 06:21:56;;;;;;;7.10;3.88;;;;;;;9.88;100.00;101585.91;4979274;28;20057;-76
2023/05/11 06:24:40;;;;;;;6.00;3.20;;;;;;;9.88;100.00;101585.91;4978975;28;20116;-75
2023/05/11 06:27:24;;;;;;;7.40;3.55;;;;;;;9.91;100.00;101593.75;4995593;28;20099;-75
2023/05/11 06:30:08;;;;;;;5.22;3.25;;;;;;;9.94;100.00;101590.13;4982669;28;20049;-75
2023/05/11 06:32:52;;;;;;;6.00;3.60;;;;;;;10.02;100.00;101597.84;4981885;28;20084;-75
2023/05/11 06:35:37;;;;;;;6.20;3.35;;;;;;;10.05;100.00;101598.63;4981897;28;20135;-74
2023/05/11 06:38:21;;;;;;;5.68;3.40;;;;;;;10.12;100.00;101601.03;4981512;28;20053;-75
2023/05/11 06:41:06;;;;;;;6.35;3.40;;;;;;;10.15;100.00;101607.09;4980019;28;20064;-75
2023/05/11 06:43:50;;;;;;;6.47;3.15;;;;;;;10.18;100.00;101609.66;4982412;28;20788;-75
2023/05/11 06:46:34;;;;;;;5.72;3.05;;;;;;;10.23;100.00;101606.88;4979085;28;21733;-75
2023/05/11 06:49:19;;;;;;;5.85;3.25;;;;;;;10.25;100.00;101597.09;4979853;28;20544;-75
2023/05/11 06:52:03;;;;;;;5.18;2.85;;;;;;;10.30;100.00;101597.81;4994128;28;20670;-75
2023/05/11 06:54:47;;;;;;;6.03;3.42;;;;;;;10.37;100.00;101600.28;4979339;28;21009;-75
2023/05/11 06:57:31;;;;;;;5.10;3.00;;;;;;;10.39;100.00;101606.38;4976139;28;21059;-76
2023/05/11 07:00:18;;;;;;;6.10;3.70;;;;;;;10.43;100.00;101600.09;4978120;28;20076;-76
2023/05/11 07:03:03;;;;;;;4.78;3.15;;;;;;;10.48;100.00;101605.25;4985032;28;20057;-76
2023/05/11 07:05:48;;;;;;;5.18;3.15;;;;;;;10.49;100.00;101604.31;4977609;28;20049;-77
2023/05/11 07:08:32;;;;;;;5.25;3.40;;;;;;;10.49;100.00;101604.31;4977973;28;20132;-85
2023/05/11 07:11:17;;;;;;;5.47;3.20;;;;;;;10.52;100.00;101609.53;4977643;28;20511;-75
2023/05/11 07:14:02;;;;;;;4.32;2.70;;;;;;;10.55;100.00;101609.41;4974885;28;20184;-75
2023/05/11 07:16:46;;;;;;;4.03;2.85;;;;;;;10.55;100.00;101606.78;4965395;28;21838;-77
2023/05/11 07:19:33;;;;;;;6.22;3.30;;;;;;;10.54;100.00;101608.56;4976311;28;20850;-75
2023/05/11 07:22:17;;;;;;;3.83;2.60;;;;;;;10.57;100.00;101605.81;4977415;28;20161;-77
2023/05/11 07:25:02;;;;;;;5.30;3.10;;;;;;;10.60;100.00;101604.84;4978248;28;20138;-77
2023/05/11 07:27:46;;;;;;;5.40;3.28;;;;;;;10.64;100.00;101613.56;4980348;28;20161;-82
2023/05/11 07:30:29;;;;;;;4.00;2.72;;;;;;;10.66;100.00;101609.06;4975275;28;20177;-77
2023/05/11 07:33:13;;;;;;;4.57;2.92;;;;;;;10.69;100.00;101615.13;4977345;28;20072;-76
2023/05/11 07:35:58;;;;;;;4.28;2.70;;;;;;;10.67;100.00;101614.31;4978250;28;20096;-77
2023/05/11 07:38:42;;;;;;;4.10;2.83;;;;;;;10.69;100.00;101611.63;4976018;28;20571;-75
2023/05/11 07:41:29;;;;;;;5.32;2.88;;;;;;;10.70;100.00;101608.06;4978020;28;20200;-76
2023/05/11 07:44:13;;;;;;;6.72;2.70;;;;;;;10.69;100.00;101607.16;4978955;28;20044;-77
2023/05/11 07:46:58;;;;;;;4.60;2.80;;;;;;;10.78;100.00;101610.44;4975618;28;20116;-77
2023/05/11 07:49:42;;;;;;;5.53;3.00;;;;;;;10.79;100.00;101612.19;4978861;28;20191;-77
2023/05/11 07:52:26;;;;;;;4.55;2.60;;;;;;;10.82;100.00;101612.06;4981284;28;20065;-76
2023/05/11 07:55:11;;;;;;;4.60;2.88;;;;;;;10.81;100.00;101616.50;4976724;28;20076;-76
2023/05/11 07:57:55;;;;;;;3.33;2.67;;;;;;;10.83;100.00;101619.97;4983993;28;20129;-77
2023/05/11 08:00:39;;;;;;;4.57;2.63;;;;;;;10.81;100.00;101619.16;4980480;28;20281;-76
2023/05/11 08:03:23;;;;;;;3.05;2.22;;;;;;;10.83;100.00;101627.91;4981177;28;20052;-76
2023/05/11 08:06:08;;;;;;;3.30;2.28;;;;;;;10.86;100.00;101629.59;4980756;28;20584;-76
2023/05/11 08:08:52;;;;;;;3.63;2.08;;;;;;;10.88;100.00;101633.03;4982483;28;20062;-76
2023/05/11 08:11:36;;;;;;;4.93;2.20;;;;;;;10.91;100.00;101624.13;4982654;28;20048;-76
2023/05/11 08:14:20;;;;;;;3.78;2.13;;;;;;;10.92;100.00;101628.50;4976104;28;20091;-77
2023/05/11 08:17:05;;;;;;;3.50;2.25;;;;;;;10.92;100.00;101634.69;4975551;28;20044;-77
2023/05/11 08:20:03;;;;;;;4.05;2.30;;;;;;;10.91;100.00;101632.94;4980323;28;20525;-89
2023/05/11 08:22:47;;;;;;;3.42;2.03;;;;;;;10.89;100.00;101634.75;4977973;28;20226;-77
2023/05/11 08:25:32;;;;;;;2.97;2.13;;;;;;;10.90;100.00;101636.50;4979131;28;20595;-75
2023/05/11 08:28:19;;;;;;;3.67;2.30;;;;;;;10.86;100.00;101637.53;4974180;28;20088;-76
2023/05/11 08:31:05;;;;;;;6.15;2.45;;;;;;;10.86;100.00;101634.88;4979209;28;20053;-77
2023/05/11 08:33:49;;;;;;;3.20;1.98;;;;;;;10.89;100.00;101632.13;4980717;28;20040;-77
2023/05/11 08:36:34;;;;;;;2.70;1.85;;;;;;;10.90;100.00;101631.19;4976247;28;20476;-78
2023/05/11 08:39:20;;;;;;;3.97;2.30;;;;;;;10.93;100.00;101631.09;4980816;28;20412;-78
2023/05/11 08:42:05;;;;;;;2.70;1.92;;;;;;;10.97;100.00;101635.41;4980658;28;20163;-76
2023/05/11 08:44:55;;;;;;;3.33;2.15;;;;;;;10.99;100.00;101633.53;4983658;28;20069;-76
2023/05/11 08:47:39;;;;;;;2.92;2.10;;;;;;;11.02;100.00;101637.88;4994277;28;20136;-78
2023/05/11 08:50:22;;;;;;;2.75;2.13;;;;;;;11.00;100.00;101626.44;4979799;28;20599;-77
2023/05/11 08:53:06;;;;;;;3.05;2.35;;;;;;;11.02;100.00;101637.88;4975768;28;20125;-77
2023/05/11 08:55:51;;;;;;;3.10;2.38;;;;;;;11.07;100.00;101632.41;4977533;28;21596;-77
2023/05/11 08:58:36;;;;;;;3.13;2.40;;;;;;;11.09;100.00;101633.22;4977684;28;20177;-76
2023/05/11 09:01:22;;;;;;;3.65;2.65;;;;;;;11.06;100.00;101636.84;4976494;28;20140;-77
2023/05/11 09:04:06;;;;;;;3.17;2.40;;;;;;;11.05;100.00;101632.47;4975440;28;20166;-77
2023/05/11 09:06:51;;;;;;;4.60;2.78;;;;;;;11.05;100.00;101644.84;4978542;28;20140;-77
2023/05/11 09:09:35;;;;;;;3.83;2.83;;;;;;;11.07;100.00;101648.31;4981428;28;20108;-76
2023/05/11 09:12:19;;;;;;;4.55;3.20;;;;;;;11.07;100.00;101638.56;4980737;28;20041;-77
2023/05/11 09:15:04;;;;;;;5.25;3.42;;;;;;;11.11;100.00;101639.34;4977742;28;20100;-76
2023/05/11 09:17:48;;;;;;;4.97;3.33;;;;;;;11.13;100.00;101648.09;4974753;28;20539;-77
2023/05/11 09:20:33;;;;;;;6.00;3.83;;;;;;;11.08;100.00;101640.31;4980267;28;20044;-76
2023/05/11 09:23:25;;;;;;;9.05;4.30;;;;;;;11.16;100.00;101645.31;4972377;28;20917;-76
2023/05/11 09:26:14;;;;;;;6.80;4.20;;;;;;;11.17;100.00;101639.09;4962349;28;20134;-76
2023/05/11 09:28:58;;;;;;;7.15;4.00;;;;;;;11.20;100.00;101636.38;4972717;28;20069;-77
2023/05/11 09:31:44;;;;;;;7.55;4.20;;;;;;;11.22;100.00;101638.97;4961306;28;20824;-77
2023/05/11 09:34:28;;;;;;;6.78;3.78;;;;;;;11.27;100.00;101635.22;4977043;28;20130;-77
2023/05/11 09:37:17;;;;;;;8.88;4.10;;;;;;;11.27;100.00;101640.53;4973804;28;21005;-77
2023/05/11 09:40:03;;;;;;;8.68;4.22;;;;;;;11.35;100.00;101634.06;4951176;28;20108;-75
2023/05/11 09:42:48;;;;;;;8.52;4.50;;;;;;;11.39;100.00;101635.72;4968657;28;20138;-76
2023/05/11 09:45:39;;;;;;;9.10;4.25;;;;;;;11.48;100.00;101638.00;4977538;28;20069;-76
2023/05/11 09:48:25;;;;;;;9.25;5.10;;;;;;;11.52;100.00;101623.72;4975601;28;20053;-77
2023/05/11 09:51:09;;;;;;;11.57;5.18;;;;;;;11.55;100.00;101628.91;4972582;28;20681;-76
2023/05/11 09:53:53;;;;;;;11.73;5.00;;;;;;;11.61;100.00;101629.59;4975234;28;20311;-77
2023/05/11 09:56:46;;;;;;;10.52;5.18;;;;;;;11.66;100.00;101635.63;4970017;28;20405;-76
2023/05/11 09:59:40;;;;;;;9.73;4.88;;;;;;;11.71;100.00;101638.94;4974955;28;20061;-76
2023/05/11 10:02:26;;;;;;;11.90;4.65;;;;;;;11.78;100.00;101643.09;4978719;28;20084;-75
2023/05/11 10:05:12;;;;;;;10.15;4.95;;;;;;;11.81;100.00;101640.34;4969177;28;20406;-76
2023/05/11 10:08:03;;;;;;;9.48;5.20;;;;;;;11.88;100.00;101645.41;4970073;28;20053;-76
2023/05/11 10:10:48;;;;;;;12.88;5.15;;;;;;;11.86;100.00;101641.94;4971553;28;20174;-77
2023/05/11 10:13:36;;;;;;;11.23;4.65;;;;;;;11.92;100.00;101647.00;4973343;28;20048;-77
2023/05/11 10:16:23;;;;;;;11.63;5.18;;;;;;;11.98;100.00;101651.22;4974572;28;20152;-76
2023/05/11 10:19:07;;;;;;;11.38;4.45;;;;;;;12.07;100.00;101645.59;4978973;28;20524;-76
2023/05/11 10:21:51;;;;;;;11.75;5.10;;;;;;;12.13;100.00;101648.00;4973719;28;20073;-75
2023/05/11 10:24:35;;;;;;;8.55;4.50;;;;;;;12.22;100.00;101644.97;4976864;28;20107;-76
2023/05/11 10:27:20;;;;;;;12.50;5.13;;;;;;;12.22;100.00;101647.63;4972780;28;20053;-75
2023/05/11 10:30:06;;;;;;;9.23;4.68;;;;;;;12.28;100.00;101654.50;4976793;28;20100;-76
2023/05/11 10:32:51;;;;;;;9.52;5.00;;;;;;;12.35;100.00;101650.69;4976815;28;20398;-75
2023/05/11 10:35:37;;;;;;;9.10;4.80;;;;;;;12.39;100.00;101650.53;4980153;28;20041;-76
2023/05/11 10:38:22;;;;;;;10.38;4.78;;;;;;;12.49;100.00;101643.94;4976303;28;20693;-75
2023/05/11 10:41:16;;;;;;;9.65;4.95;;;;;;;12.70;100.00;101649.31;4973656;28;20118;-79
2023/05/11 10:44:24;;;;;;;11.50;5.20;;;;;;;12.82;100.00;101647.91;4968337;28;20046;-75
2023/05/11 10:47:24;;;;;;;8.82;4.90;;;;;;;12.82;100.00;101648.78;4967266;28;20080;-75
2023/05/11 10:50:14;;;;;;;10.18;5.20;;;;;;;12.87;100.00;101659.22;4976947;28;21058;-75
2023/05/11 10:53:25;;;;;;;9.80;5.22;;;;;;;12.93;100.00;101661.63;4976044;28;20104;-75
2023/05/11 10:56:59;;;;;;;10.18;5.53;;;;;;;12.97;100.00;101654.38;4977106;28;20160;-75
2023/05/11 11:00:09;;;;;;;9.55;5.07;;;;;;;12.96;100.00;101655.31;4953322;28;20107;-75
2023/05/11 11:02:57;;;;;;;10.18;6.05;;;;;;;12.98;100.00;101656.97;4983259;28;20594;-75
2023/05/11 11:05:43;;;;;;;7.53;4.93;;;;;;;13.02;100.00;101661.22;4976847;28;20056;-74
2023/05/11 11:08:57;;;;;;;10.48;4.75;;;;;;;13.07;100.00;101660.16;4966163;28;20308;-75
2023/05/11 11:11:49;;;;;;;9.07;4.50;;;;;;;13.15;100.00;101650.94;4970093;28;20117;-75
2023/05/11 11:15:12;;;;;;;9.80;5.07;;;;;;;13.20;100.00;101652.50;4976110;28;20053;-76
2023/05/11 11:18:44;;;;;;;6.78;3.88;;;;;;;13.34;100.00;101647.44;4974221;28;20045;-76
2023/05/11 11:21:44;;;;;;;7.05;4.30;;;;;;;13.38;100.00;101657.03;4975292;28;20076;-75
2023/05/11 11:24:37;;;;;;;7.22;4.50;;;;;;;13.44;100.00;101651.44;4974086;28;20185;-82
2023/05/11 11:27:44;;;;;;;7.18;4.82;;;;;;;13.57;100.00;101654.44;4970203;28;20460;-77
2023/05/11 11:30:29;;;;;;;7.10;4.43;;;;;;;13.65;100.00;101654.09;4978166;28;20045;-76
2023/05/11 11:33:13;;;;;;;7.32;4.50;;;;;;;13.70;100.00;101652.09;4977299;28;20817;-76
2023/05/11 11:35:57;;;;;;;7.03;4.80;;;;;;;13.81;100.00;101645.41;4974545;28;20037;-76
2023/05/11 11:39:02;;;;;;;6.68;4.43;;;;;;;13.91;100.00;101643.16;4976501;28;20051;-75
2023/05/11 11:42:03;;;;;;;6.40;4.03;;;;;;;14.10;100.00;101649.34;4987498;28;20073;-76
2023/05/11 11:44:48;;;;;;;7.10;4.65;;;;;;;14.29;100.00;101647.59;4975746;28;20185;-75
2023/05/11 11:47:32;;;;;;;7.00;4.63;;;;;;;14.46;100.00;101650.31;4976617;28;20583;-75
2023/05/11 11:50:18;;;;;;;7.80;5.45;;;;;;;14.60;100.00;101651.44;4979062;28;20920;-76
2023/05/11 11:53:03;;;;;;;7.13;4.72;;;;;;;14.70;100.00;101652.69;4969975;28;20120;-76
2023/05/11 11:55:49;;;;;;;6.80;4.55;;;;;;;14.79;100.00;101646.94;4971875;28;20057;-75
2023/05/11 11:58:40;;;;;;;7.28;4.72;;;;;;;14.85;100.00;101644.88;4979933;28;20129;-77
2023/05/11 12:01:29;;;;;;;7.28;4.85;;;;;;;14.97;100.00;101644.25;4974752;28;20692;-76
2023/05/11 12:04:35;;;;;;;7.05;4.78;;;;;;;15.12;100.00;101647.06;4974992;28;20056;-77
2023/05/11 12:07:20;;;;;;;7.35;4.90;;;;;;;15.10;100.00;101638.31;4973633;28;20049;-76
2023/05/11 12:10:04;;;;;;;7.05;4.78;;;;;;;15.15;100.00;101636.25;4976066;28;20049;-77
2023/05/11 12:12:50;;;;;;;8.02;4.68;;;;;;;15.18;100.00;101646.75;4973619;28;20119;-77
2023/05/11 12:15:40;;;;;;;8.90;5.28;;;;;;;15.28;100.00;101644.47;4979779;28;20057;-77
2023/05/11 12:18:24;;;;;;;8.90;5.22;;;;;;;15.30;100.00;101643.44;4974240;28;20073;-77
2023/05/11 12:21:23;;;;;;;8.23;4.93;;;;;;;15.33;100.00;101635.31;4975268;28;20084;-77
2023/05/11 12:24:07;;;;;;;7.10;4.93;;;;;;;15.45;100.00;101638.25;4971496;28;20080;-77
2023/05/11 12:26:55;;;;;;;9.13;5.78;;;;;;;15.52;100.00;101644.97;4971607;28;20103;-75
2023/05/11 12:29:40;;;;;;;8.55;5.50;;;;;;;15.63;100.00;101635.53;4967184;28;21028;-77
2023/05/11 12:32:28;;;;;;;8.43;5.85;;;;;;;15.66;100.00;101638.03;4975459;28;21137;-77
2023/05/11 12:35:15;;;;;;;10.57;6.10;;;;;;;15.64;100.00;101638.13;4976297;28;20512;-78
2023/05/11 12:38:03;;;;;;;12.35;6.60;;;;;;;15.70;100.00;101636.94;4971669;28;20060;-76
2023/05/11 12:40:48;;;;;;;9.93;5.97;;;;;;;15.73;100.00;101636.75;4976284;28;20057;-76
2023/05/11 12:43:35;;;;;;;7.05;4.80;;;;;;;15.82;100.00;101636.25;4979315;28;20053;-76
2023/05/11 12:46:21;;;;;;;6.13;4.57;;;;;;;15.72;100.00;101635.03;4975684;28;20558;-77